createdAt,value
2023-03-03T00:03:02.006Z,2704.33957
2023-03-03T00:18:04.009Z,2771.45864
2023-03-03T00:33:05.932Z,2818.08675
2023-03-03T00:48:07.836Z,2740.28682
2023-03-03T01:03:09.784Z,2797.49531
2023-03-03T01:18:11.766Z,2881.72096
2023-03-03T01:33:13.716Z,2780.08351
2023-03-03T01:48:15.710Z,2754.36846
2023-03-03T02:03:17.693Z,2774.32765
2023-03-03T02:18:19.606Z,2788.76223
2023-03-03T02:33:21.496Z,2788.76223
2023-03-03T02:48:23.368Z,2780.08351
2023-03-03T03:03:25.307Z,2785.86331
2023-03-03T03:18:27.249Z,2791.66719
2023-03-03T03:33:29.245Z,2771.45864
2023-03-03T03:48:31.191Z,2729.12476
2023-03-03T04:03:33.155Z,2599.41856
2023-03-03T04:18:35.126Z,2666.66719
2023-03-03T04:33:37.103Z,2712.55113
2023-03-03T04:48:39.031Z,2609.54287
2023-03-03T05:03:40.972Z,2688.06471
2023-03-03T05:18:43.110Z,2762.88712
2023-03-03T05:33:45.135Z,2617.18802
2023-03-03T05:48:47.040Z,2671.98457
2023-03-03T06:03:48.973Z,2743.09162
2023-03-03T06:18:50.893Z,2737.48775
2023-03-03T06:33:52.866Z,2677.3232
2023-03-03T06:48:54.835Z,2754.36846
2023-03-03T07:03:56.840Z,2803.34781
2023-03-03T07:18:58.871Z,2635.20209
2023-03-03T07:34:00.904Z,2334.49528
2023-03-03T07:49:02.831Z,2156.07452
2023-03-03T08:04:04.860Z,1364.56263
2023-03-03T08:19:06.802Z,1467.68945
2023-03-03T08:34:08.758Z,1497.20722
2023-03-03T08:49:10.932Z,1193.23292
2023-03-03T09:04:12.944Z,1172.35396
2023-03-03T09:19:14.928Z,1283.52541
2023-03-03T09:34:16.829Z,1207.20771
2023-03-03T09:49:18.736Z,1193.23292
2023-03-03T10:04:20.743Z,1416.491
2023-03-03T10:19:22.711Z,1550.92642
2023-03-03T10:34:24.648Z,1428.57194
2023-03-03T10:49:26.621Z,1527.93664
2023-03-03T11:04:28.550Z,1668.74271
2023-03-03T11:19:30.600Z,1653.30093
2023-03-03T11:34:32.566Z,1751.63448
2023-03-03T11:49:34.567Z,1859.82007
2023-03-03T12:04:36.496Z,1879.38339
2023-03-03T12:19:38.393Z,2008.996
2023-03-03T12:34:40.307Z,2034.92837
2023-03-03T12:49:44.146Z,2125.29789
2023-03-03T13:04:47.047Z,2194.9227
2023-03-03T13:19:49.018Z,2271.18695
2023-03-03T13:34:50.988Z,2300.42969
2023-03-03T13:49:52.889Z,2375.88703
2023-03-03T14:04:54.770Z,2405.74557
2023-03-03T14:19:56.766Z,2481.482
2023-03-03T14:34:58.882Z,2516.43244
2023-03-03T14:50:00.809Z,2557.25242
2023-03-03T15:05:02.769Z,2632.61349
2023-03-03T15:20:06.429Z,2619.74636
2023-03-03T15:35:08.508Z,2701.61342
2023-03-03T15:50:10.378Z,2707.07123
2023-03-03T16:05:12.335Z,2760.04172
2023-03-03T16:20:14.237Z,2757.20217
2023-03-03T16:35:16.113Z,2745.90216
2023-03-03T16:50:18.053Z,2549.95294
2023-03-03T17:05:20.017Z,2390.72308
2023-03-03T17:20:21.919Z,2326.3894
2023-03-03T17:35:24.023Z,2320.34683
2023-03-03T17:50:25.947Z,2346.76058
2023-03-03T18:05:27.846Z,2298.45677
2023-03-03T18:20:29.941Z,2328.41059
2023-03-03T18:35:31.886Z,2369.58495
2023-03-03T18:50:33.947Z,2410.07245
2023-03-03T19:05:35.838Z,2463.23581
2023-03-03T19:20:37.776Z,2443.02695
2023-03-03T19:35:39.783Z,2511.7156
2023-03-03T19:50:41.680Z,2518.79751
2023-03-03T20:05:43.582Z,2607.00441
2023-03-03T20:20:45.514Z,2589.3725
2023-03-03T20:35:47.481Z,2658.73068
2023-03-03T20:50:49.564Z,2731.90674
2023-03-03T21:05:51.543Z,2707.07123
2023-03-03T21:20:53.672Z,2734.6944
2023-03-03T21:35:55.582Z,2765.7384
2023-03-03T21:50:57.528Z,2674.65122
2023-03-03T22:05:59.473Z,2701.61342
2023-03-03T22:21:01.430Z,2729.12476
2023-03-03T22:36:03.362Z,2547.52903
2023-03-03T22:51:05.297Z,2490.70683
2023-03-03T23:06:07.196Z,2438.58104
2023-03-03T23:21:09.184Z,2481.482
2023-03-03T23:36:11.151Z,2467.77215
2023-03-03T23:51:13.093Z,2490.70683
